sensor_id;sensor_type;location;lat;lon;timestamp;temperature;humidity
14709;DHT22;7445;50.774;4.944;2022-08-19T00:01:52;19.90;99.90
14709;DHT22;7445;50.774;4.944;2022-08-19T00:04:23;19.90;99.90
14709;DHT22;7445;50.774;4.944;2022-08-19T00:06:50;19.80;99.90
14709;DHT22;7445;50.774;4.944;2022-08-19T00:09:17;19.80;99.90
14709;DHT22;7445;50.774;4.944;2022-08-19T00:11:44;19.80;99.90
14709;DHT22;7445;50.774;4.944;2022-08-19T00:14:13;19.80;99.90
14709;DHT22;7445;50.774;4.944;2022-08-19T00:16:42;19.80;99.90
14709;DHT22;7445;50.774;4.944;2022-08-19T00:19:08;19.80;99.90
14709;DHT22;7445;50.774;4.944;2022-08-19T00:21:34;19.70;99.90
14709;DHT22;7445;50.774;4.944;2022-08-19T00:24:09;19.60;99.90
14709;DHT22;7445;50.774;4.944;2022-08-19T00:26:35;19.60;99.90
14709;DHT22;7445;50.774;4.944;2022-08-19T00:29:02;19.50;99.90
14709;DHT22;7445;50.774;4.944;2022-08-19T00:31:28;19.40;99.90
14709;DHT22;7445;50.774;4.944;2022-08-19T00:33:54;19.40;99.90
14709;DHT22;7445;50.774;4.944;2022-08-19T00:36:20;19.40;99.90
14709;DHT22;7445;50.774;4.944;2022-08-19T00:38:46;19.40;99.90
14709;DHT22;7445;50.774;4.944;2022-08-19T00:41:16;19.40;99.90
14709;DHT22;7445;50.774;4.944;2022-08-19T00:46:28;19.30;99.90
14709;DHT22;7445;50.774;4.944;2022-08-19T00:48:54;19.20;99.90
14709;DHT22;7445;50.774;4.944;2022-08-19T00:51:21;19.10;99.90
14709;DHT22;7445;50.774;4.944;2022-08-19T00:53:48;19.20;99.90
14709;DHT22;7445;50.774;4.944;2022-08-19T00:56:14;19.20;99.90
14709;DHT22;7445;50.774;4.944;2022-08-19T00:58:40;19.20;99.90
14709;DHT22;7445;50.774;4.944;2022-08-19T01:01:06;19.10;99.90
14709;DHT22;7445;50.774;4.944;2022-08-19T01:03:33;19.10;99.90
14709;DHT22;7445;50.774;4.944;2022-08-19T01:05:59;19.10;99.90
14709;DHT22;7445;50.774;4.944;2022-08-19T01:08:25;19.00;99.90
14709;DHT22;7445;50.774;4.944;2022-08-19T01:10:54;19.00;99.90
14709;DHT22;7445;50.774;4.944;2022-08-19T01:13:25;19.00;99.90
14709;DHT22;7445;50.774;4.944;2022-08-19T01:16:05;18.90;99.90
14709;DHT22;7445;50.774;4.944;2022-08-19T01:18:35;18.80;99.90
14709;DHT22;7445;50.774;4.944;2022-08-19T01:21:07;18.80;99.90
14709;DHT22;7445;50.774;4.944;2022-08-19T01:23:34;18.80;99.90
14709;DHT22;7445;50.774;4.944;2022-08-19T01:26:15;18.70;99.90
14709;DHT22;7445;50.774;4.944;2022-08-19T01:28:43;18.60;99.90
14709;DHT22;7445;50.774;4.944;2022-08-19T01:31:14;18.60;99.90
14709;DHT22;7445;50.774;4.944;2022-08-19T01:33:40;18.50;99.90
14709;DHT22;7445;50.774;4.944;2022-08-19T01:36:11;18.50;99.90
14709;DHT22;7445;50.774;4.944;2022-08-19T01:38:40;18.50;99.90
14709;DHT22;7445;50.774;4.944;2022-08-19T01:41:07;18.50;99.90
14709;DHT22;7445;50.774;4.944;2022-08-19T01:43:33;18.50;99.90
14709;DHT22;7445;50.774;4.944;2022-08-19T01:45:59;18.50;99.90
14709;DHT22;7445;50.774;4.944;2022-08-19T01:48:26;18.50;99.90
14709;DHT22;7445;50.774;4.944;2022-08-19T01:50:52;18.60;99.90
14709;DHT22;7445;50.774;4.944;2022-08-19T01:53:17;18.50;99.90
14709;DHT22;7445;50.774;4.944;2022-08-19T01:55:43;18.50;99.90
14709;DHT22;7445;50.774;4.944;2022-08-19T01:58:15;18.50;99.90
14709;DHT22;7445;50.774;4.944;2022-08-19T02:00:42;18.50;99.90
14709;DHT22;7445;50.774;4.944;2022-08-19T02:03:09;18.50;99.90
14709;DHT22;7445;50.774;4.944;2022-08-19T02:05:36;18.50;99.90
14709;DHT22;7445;50.774;4.944;2022-08-19T02:08:03;18.50;99.90
14709;DHT22;7445;50.774;4.944;2022-08-19T02:10:29;18.50;99.90
14709;DHT22;7445;50.774;4.944;2022-08-19T02:12:54;18.50;99.90
14709;DHT22;7445;50.774;4.944;2022-08-19T02:15:20;18.60;99.90
14709;DHT22;7445;50.774;4.944;2022-08-19T02:17:47;18.60;99.90
14709;DHT22;7445;50.774;4.944;2022-08-19T02:20:14;18.50;99.90
14709;DHT22;7445;50.774;4.944;2022-08-19T02:22:40;18.50;99.90
14709;DHT22;7445;50.774;4.944;2022-08-19T02:25:11;18.50;99.90
14709;DHT22;7445;50.774;4.944;2022-08-19T02:27:38;18.50;99.90
14709;DHT22;7445;50.774;4.944;2022-08-19T02:30:06;18.50;99.90
14709;DHT22;7445;50.774;4.944;2022-08-19T02:32:32;18.40;99.90
14709;DHT22;7445;50.774;4.944;2022-08-19T02:34:58;18.40;99.90
14709;DHT22;7445;50.774;4.944;2022-08-19T02:37:24;18.30;99.90
14709;DHT22;7445;50.774;4.944;2022-08-19T02:40:08;18.30;99.90
14709;DHT22;7445;50.774;4.944;2022-08-19T02:42:34;18.30;99.90
14709;DHT22;7445;50.774;4.944;2022-08-19T02:45:00;18.30;99.90
14709;DHT22;7445;50.774;4.944;2022-08-19T02:47:25;18.30;99.90
14709;DHT22;7445;50.774;4.944;2022-08-19T02:49:52;18.20;99.90
14709;DHT22;7445;50.774;4.944;2022-08-19T02:52:18;18.10;99.90
14709;DHT22;7445;50.774;4.944;2022-08-19T02:54:44;18.10;99.90
14709;DHT22;7445;50.774;4.944;2022-08-19T02:57:09;18.00;99.90
14709;DHT22;7445;50.774;4.944;2022-08-19T02:59:35;18.00;99.90
14709;DHT22;7445;50.774;4.944;2022-08-19T03:02:01;17.90;99.90
14709;DHT22;7445;50.774;4.944;2022-08-19T03:04:26;17.90;99.90
14709;DHT22;7445;50.774;4.944;2022-08-19T03:06:52;17.90;99.90
14709;DHT22;7445;50.774;4.944;2022-08-19T03:09:19;17.80;99.90
14709;DHT22;7445;50.774;4.944;2022-08-19T03:11:45;17.80;99.90
14709;DHT22;7445;50.774;4.944;2022-08-19T03:14:12;17.80;99.90
14709;DHT22;7445;50.774;4.944;2022-08-19T03:16:46;17.80;99.90
14709;DHT22;7445;50.774;4.944;2022-08-19T03:19:12;17.90;99.90
14709;DHT22;7445;50.774;4.944;2022-08-19T03:21:39;17.90;99.90
14709;DHT22;7445;50.774;4.944;2022-08-19T03:24:07;17.90;99.90
14709;DHT22;7445;50.774;4.944;2022-08-19T03:26:34;17.80;99.90
14709;DHT22;7445;50.774;4.944;2022-08-19T03:29:04;17.70;99.90
14709;DHT22;7445;50.774;4.944;2022-08-19T03:31:30;17.70;99.90
14709;DHT22;7445;50.774;4.944;2022-08-19T03:33:56;17.70;99.90
14709;DHT22;7445;50.774;4.944;2022-08-19T03:36:25;17.70;99.90
14709;DHT22;7445;50.774;4.944;2022-08-19T03:38:57;17.70;99.90
14709;DHT22;7445;50.774;4.944;2022-08-19T03:41:29;17.70;99.90
14709;DHT22;7445;50.774;4.944;2022-08-19T03:43:56;17.70;99.90
14709;DHT22;7445;50.774;4.944;2022-08-19T03:46:26;17.70;99.90
14709;DHT22;7445;50.774;4.944;2022-08-19T03:48:54;17.70;99.90
14709;DHT22;7445;50.774;4.944;2022-08-19T03:53:52;17.70;99.90
14709;DHT22;7445;50.774;4.944;2022-08-19T03:56:18;17.70;99.90
14709;DHT22;7445;50.774;4.944;2022-08-19T03:58:44;17.70;99.90
14709;DHT22;7445;50.774;4.944;2022-08-19T04:01:14;17.70;99.90
14709;DHT22;7445;50.774;4.944;2022-08-19T04:03:40;17.70;99.90
14709;DHT22;7445;50.774;4.944;2022-08-19T04:06:27;17.60;99.90
14709;DHT22;7445;50.774;4.944;2022-08-19T04:08:54;17.60;99.90
14709;DHT22;7445;50.774;4.944;2022-08-19T04:11:23;17.50;99.90
14709;DHT22;7445;50.774;4.944;2022-08-19T04:13:51;17.60;99.90
14709;DHT22;7445;50.774;4.944;2022-08-19T04:16:18;17.50;99.90
14709;DHT22;7445;50.774;4.944;2022-08-19T04:18:46;17.50;99.90
14709;DHT22;7445;50.774;4.944;2022-08-19T04:21:18;17.50;99.90
14709;DHT22;7445;50.774;4.944;2022-08-19T04:23:45;17.40;99.90
14709;DHT22;7445;50.774;4.944;2022-08-19T04:26:15;17.40;99.90
14709;DHT22;7445;50.774;4.944;2022-08-19T04:28:42;17.40;99.90
14709;DHT22;7445;50.774;4.944;2022-08-19T04:31:16;17.40;99.90
14709;DHT22;7445;50.774;4.944;2022-08-19T04:33:41;17.30;99.90
14709;DHT22;7445;50.774;4.944;2022-08-19T04:36:07;17.30;99.90
14709;DHT22;7445;50.774;4.944;2022-08-19T04:38:35;17.20;99.90
14709;DHT22;7445;50.774;4.944;2022-08-19T04:41:03;17.20;99.90
14709;DHT22;7445;50.774;4.944;2022-08-19T04:43:47;17.30;99.90
14709;DHT22;7445;50.774;4.944;2022-08-19T04:46:14;17.30;99.90
14709;DHT22;7445;50.774;4.944;2022-08-19T04:48:39;17.30;99.90
14709;DHT22;7445;50.774;4.944;2022-08-19T04:51:08;17.20;99.90
14709;DHT22;7445;50.774;4.944;2022-08-19T04:53:37;17.20;99.90
14709;DHT22;7445;50.774;4.944;2022-08-19T04:56:10;17.20;99.90
14709;DHT22;7445;50.774;4.944;2022-08-19T04:58:38;17.20;99.90
14709;DHT22;7445;50.774;4.944;2022-08-19T05:01:04;17.20;99.90
14709;DHT22;7445;50.774;4.944;2022-08-19T05:03:30;17.20;99.90
14709;DHT22;7445;50.774;4.944;2022-08-19T05:06:07;17.10;99.90
14709;DHT22;7445;50.774;4.944;2022-08-19T05:08:34;17.10;99.90
14709;DHT22;7445;50.774;4.944;2022-08-19T05:11:06;17.10;99.90
14709;DHT22;7445;50.774;4.944;2022-08-19T05:13:32;17.20;99.90
14709;DHT22;7445;50.774;4.944;2022-08-19T05:15:58;17.20;99.90
14709;DHT22;7445;50.774;4.944;2022-08-19T05:18:24;17.20;99.90
14709;DHT22;7445;50.774;4.944;2022-08-19T05:21:14;17.20;99.90
14709;DHT22;7445;50.774;4.944;2022-08-19T05:23:58;17.20;99.90
14709;DHT22;7445;50.774;4.944;2022-08-19T05:26:25;17.20;99.90
14709;DHT22;7445;50.774;4.944;2022-08-19T05:28:52;17.20;99.90
14709;DHT22;7445;50.774;4.944;2022-08-19T05:31:18;17.20;99.90
14709;DHT22;7445;50.774;4.944;2022-08-19T05:33:43;17.30;99.90
14709;DHT22;7445;50.774;4.944;2022-08-19T05:36:09;17.30;99.90
14709;DHT22;7445;50.774;4.944;2022-08-19T05:38:35;17.50;99.90
14709;DHT22;7445;50.774;4.944;2022-08-19T05:41:08;17.60;99.90
14709;DHT22;7445;50.774;4.944;2022-08-19T05:43:34;17.70;99.90
14709;DHT22;7445;50.774;4.944;2022-08-19T05:45:59;17.70;99.90
14709;DHT22;7445;50.774;4.944;2022-08-19T05:48:25;17.70;99.90
14709;DHT22;7445;50.774;4.944;2022-08-19T05:50:52;17.70;99.90
14709;DHT22;7445;50.774;4.944;2022-08-19T05:53:18;17.70;99.90
14709;DHT22;7445;50.774;4.944;2022-08-19T05:55:44;17.80;99.90
14709;DHT22;7445;50.774;4.944;2022-08-19T05:58:10;17.80;99.90
14709;DHT22;7445;50.774;4.944;2022-08-19T06:00:37;17.80;99.90
14709;DHT22;7445;50.774;4.944;2022-08-19T06:03:03;17.80;99.90
14709;DHT22;7445;50.774;4.944;2022-08-19T06:05:30;17.80;99.90
14709;DHT22;7445;50.774;4.944;2022-08-19T06:07:56;17.90;99.90
14709;DHT22;7445;50.774;4.944;2022-08-19T06:10:22;17.90;99.90
14709;DHT22;7445;50.774;4.944;2022-08-19T06:12:48;18.00;99.90
14709;DHT22;7445;50.774;4.944;2022-08-19T06:15:14;18.00;99.90
14709;DHT22;7445;50.774;4.944;2022-08-19T06:17:40;18.10;99.90
14709;DHT22;7445;50.774;4.944;2022-08-19T06:20:09;18.10;99.90
14709;DHT22;7445;50.774;4.944;2022-08-19T06:22:45;18.20;99.90
14709;DHT22;7445;50.774;4.944;2022-08-19T06:25:12;18.20;99.90
14709;DHT22;7445;50.774;4.944;2022-08-19T06:27:39;18.30;99.90
14709;DHT22;7445;50.774;4.944;2022-08-19T06:30:06;18.30;99.90
14709;DHT22;7445;50.774;4.944;2022-08-19T06:32:31;18.30;99.90
14709;DHT22;7445;50.774;4.944;2022-08-19T06:34:57;18.40;99.90
14709;DHT22;7445;50.774;4.944;2022-08-19T06:37:23;18.50;99.90
14709;DHT22;7445;50.774;4.944;2022-08-19T06:39:50;18.60;99.90
14709;DHT22;7445;50.774;4.944;2022-08-19T06:42:16;18.60;99.90
14709;DHT22;7445;50.774;4.944;2022-08-19T06:44:46;18.70;99.90
14709;DHT22;7445;50.774;4.944;2022-08-19T06:47:17;18.80;99.90
14709;DHT22;7445;50.774;4.944;2022-08-19T06:49:44;18.90;99.90
14709;DHT22;7445;50.774;4.944;2022-08-19T06:52:09;19.10;99.90
14709;DHT22;7445;50.774;4.944;2022-08-19T06:54:40;19.20;99.90
14709;DHT22;7445;50.774;4.944;2022-08-19T06:57:07;19.20;99.90
14709;DHT22;7445;50.774;4.944;2022-08-19T06:59:34;19.40;99.90
14709;DHT22;7445;50.774;4.944;2022-08-19T07:02:03;19.40;99.90
14709;DHT22;7445;50.774;4.944;2022-08-19T07:04:31;19.60;99.90
14709;DHT22;7445;50.774;4.944;2022-08-19T07:07:10;19.80;99.90
14709;DHT22;7445;50.774;4.944;2022-08-19T07:09:40;19.90;99.90
14709;DHT22;7445;50.774;4.944;2022-08-19T07:12:07;20.00;99.90
14709;DHT22;7445;50.774;4.944;2022-08-19T07:14:33;20.10;99.90
14709;DHT22;7445;50.774;4.944;2022-08-19T07:17:07;20.30;99.90
14709;DHT22;7445;50.774;4.944;2022-08-19T07:19:34;20.40;99.90
14709;DHT22;7445;50.774;4.944;2022-08-19T07:22:03;20.50;99.90
14709;DHT22;7445;50.774;4.944;2022-08-19T07:24:30;20.60;99.90
14709;DHT22;7445;50.774;4.944;2022-08-19T07:26:57;20.70;99.90
14709;DHT22;7445;50.774;4.944;2022-08-19T07:29:26;20.70;99.90
14709;DHT22;7445;50.774;4.944;2022-08-19T07:31:52;20.70;99.90
14709;DHT22;7445;50.774;4.944;2022-08-19T07:34:21;20.80;99.90
14709;DHT22;7445;50.774;4.944;2022-08-19T07:36:47;20.70;99.90
14709;DHT22;7445;50.774;4.944;2022-08-19T07:39:20;20.90;99.90
14709;DHT22;7445;50.774;4.944;2022-08-19T07:41:47;21.00;99.90
14709;DHT22;7445;50.774;4.944;2022-08-19T07:44:14;21.10;99.90
14709;DHT22;7445;50.774;4.944;2022-08-19T07:46:44;21.20;99.90
14709;DHT22;7445;50.774;4.944;2022-08-19T07:49:11;21.30;99.90
14709;DHT22;7445;50.774;4.944;2022-08-19T07:51:43;21.40;99.90
14709;DHT22;7445;50.774;4.944;2022-08-19T07:54:09;21.50;99.90
14709;DHT22;7445;50.774;4.944;2022-08-19T07:56:37;21.70;99.90
14709;DHT22;7445;50.774;4.944;2022-08-19T07:59:04;21.80;99.90
14709;DHT22;7445;50.774;4.944;2022-08-19T08:01:30;21.80;99.90
14709;DHT22;7445;50.774;4.944;2022-08-19T08:03:56;21.90;99.90
14709;DHT22;7445;50.774;4.944;2022-08-19T08:06:41;21.80;99.90
14709;DHT22;7445;50.774;4.944;2022-08-19T08:09:33;21.80;99.90
14709;DHT22;7445;50.774;4.944;2022-08-19T08:12:09;22.00;99.90
14709;DHT22;7445;50.774;4.944;2022-08-19T08:14:45;22.20;99.90
14709;DHT22;7445;50.774;4.944;2022-08-19T08:17:12;22.50;99.90
14709;DHT22;7445;50.774;4.944;2022-08-19T08:19:40;22.80;99.90
14709;DHT22;7445;50.774;4.944;2022-08-19T08:22:10;23.10;99.90
14709;DHT22;7445;50.774;4.944;2022-08-19T08:24:56;23.00;99.90
14709;DHT22;7445;50.774;4.944;2022-08-19T08:27:24;22.60;99.90
14709;DHT22;7445;50.774;4.944;2022-08-19T08:29:50;22.30;99.90
14709;DHT22;7445;50.774;4.944;2022-08-19T08:32:15;22.20;99.90
14709;DHT22;7445;50.774;4.944;2022-08-19T08:34:42;22.30;99.90
14709;DHT22;7445;50.774;4.944;2022-08-19T08:37:08;22.30;99.90
14709;DHT22;7445;50.774;4.944;2022-08-19T08:39:33;22.20;99.90
14709;DHT22;7445;50.774;4.944;2022-08-19T08:42:27;22.40;99.90
14709;DHT22;7445;50.774;4.944;2022-08-19T08:44:59;22.80;99.90
14709;DHT22;7445;50.774;4.944;2022-08-19T08:47:32;23.30;99.90
14709;DHT22;7445;50.774;4.944;2022-08-19T08:50:12;23.70;99.90
14709;DHT22;7445;50.774;4.944;2022-08-19T08:52:44;24.20;99.90
14709;DHT22;7445;50.774;4.944;2022-08-19T08:55:21;24.40;99.90
14709;DHT22;7445;50.774;4.944;2022-08-19T09:00:23;24.00;99.90
14709;DHT22;7445;50.774;4.944;2022-08-19T09:02:50;23.70;99.90
14709;DHT22;7445;50.774;4.944;2022-08-19T09:05:17;23.50;99.90
14709;DHT22;7445;50.774;4.944;2022-08-19T09:10:44;23.60;99.90
14709;DHT22;7445;50.774;4.944;2022-08-19T09:16:03;23.20;99.90
14709;DHT22;7445;50.774;4.944;2022-08-19T09:18:49;23.30;99.90
14709;DHT22;7445;50.774;4.944;2022-08-19T09:21:19;23.50;99.90
14709;DHT22;7445;50.774;4.944;2022-08-19T09:23:45;24.00;99.90
14709;DHT22;7445;50.774;4.944;2022-08-19T09:26:14;24.30;99.90
14709;DHT22;7445;50.774;4.944;2022-08-19T09:28:42;24.60;99.90
14709;DHT22;7445;50.774;4.944;2022-08-19T09:31:10;24.90;99.90
14709;DHT22;7445;50.774;4.944;2022-08-19T09:33:37;25.10;99.90
14709;DHT22;7445;50.774;4.944;2022-08-19T09:36:08;24.80;99.90
14709;DHT22;7445;50.774;4.944;2022-08-19T09:38:35;24.70;99.90
14709;DHT22;7445;50.774;4.944;2022-08-19T09:41:06;24.70;99.90
14709;DHT22;7445;50.774;4.944;2022-08-19T09:43:32;24.60;99.90
14709;DHT22;7445;50.774;4.944;2022-08-19T09:46:02;24.60;99.90
14709;DHT22;7445;50.774;4.944;2022-08-19T09:48:28;24.90;99.90
14709;DHT22;7445;50.774;4.944;2022-08-19T09:50:53;25.30;99.90
14709;DHT22;7445;50.774;4.944;2022-08-19T09:53:20;25.70;99.90
14709;DHT22;7445;50.774;4.944;2022-08-19T09:55:48;25.30;99.90
14709;DHT22;7445;50.774;4.944;2022-08-19T09:58:13;25.30;99.90
14709;DHT22;7445;50.774;4.944;2022-08-19T10:00:39;25.40;99.90
14709;DHT22;7445;50.774;4.944;2022-08-19T10:03:04;25.40;99.90
14709;DHT22;7445;50.774;4.944;2022-08-19T10:05:30;25.50;99.90
14709;DHT22;7445;50.774;4.944;2022-08-19T10:08:36;25.40;99.90
14709;DHT22;7445;50.774;4.944;2022-08-19T10:11:01;25.40;99.90
14709;DHT22;7445;50.774;4.944;2022-08-19T10:13:29;25.70;99.90
14709;DHT22;7445;50.774;4.944;2022-08-19T10:16:01;25.80;99.90
14709;DHT22;7445;50.774;4.944;2022-08-19T10:18:27;26.00;99.90
14709;DHT22;7445;50.774;4.944;2022-08-19T10:23:32;26.10;99.90
14709;DHT22;7445;50.774;4.944;2022-08-19T10:26:00;26.00;99.90
14709;DHT22;7445;50.774;4.944;2022-08-19T10:28:25;25.60;99.90
14709;DHT22;7445;50.774;4.944;2022-08-19T10:30:52;25.40;99.90
14709;DHT22;7445;50.774;4.944;2022-08-19T10:33:18;25.30;99.90
14709;DHT22;7445;50.774;4.944;2022-08-19T10:35:44;25.10;99.90
14709;DHT22;7445;50.774;4.944;2022-08-19T10:38:12;25.20;99.90
14709;DHT22;7445;50.774;4.944;2022-08-19T10:40:38;25.20;99.90
14709;DHT22;7445;50.774;4.944;2022-08-19T10:43:04;25.20;99.90
14709;DHT22;7445;50.774;4.944;2022-08-19T10:45:29;25.30;99.90
14709;DHT22;7445;50.774;4.944;2022-08-19T10:47:55;25.40;99.90
14709;DHT22;7445;50.774;4.944;2022-08-19T10:50:21;25.50;99.90
14709;DHT22;7445;50.774;4.944;2022-08-19T10:53:07;25.80;99.90
14709;DHT22;7445;50.774;4.944;2022-08-19T10:55:36;26.20;99.90
14709;DHT22;7445;50.774;4.944;2022-08-19T10:58:21;26.30;99.90
14709;DHT22;7445;50.774;4.944;2022-08-19T11:00:56;26.30;99.90
14709;DHT22;7445;50.774;4.944;2022-08-19T11:03:23;26.20;99.90
14709;DHT22;7445;50.774;4.944;2022-08-19T11:06:00;26.10;99.90
14709;DHT22;7445;50.774;4.944;2022-08-19T11:08:26;26.10;99.90
14709;DHT22;7445;50.774;4.944;2022-08-19T11:10:53;26.40;99.90
14709;DHT22;7445;50.774;4.944;2022-08-19T11:13:22;26.30;99.90
14709;DHT22;7445;50.774;4.944;2022-08-19T11:15:57;26.60;99.90
14709;DHT22;7445;50.774;4.944;2022-08-19T11:18:23;26.70;99.90
14709;DHT22;7445;50.774;4.944;2022-08-19T11:20:48;26.80;99.90
14709;DHT22;7445;50.774;4.944;2022-08-19T11:23:14;26.80;99.90
14709;DHT22;7445;50.774;4.944;2022-08-19T11:25:40;26.70;99.90
14709;DHT22;7445;50.774;4.944;2022-08-19T11:28:05;26.70;99.90
14709;DHT22;7445;50.774;4.944;2022-08-19T11:30:31;26.60;99.90
14709;DHT22;7445;50.774;4.944;2022-08-19T11:32:58;26.60;99.90
14709;DHT22;7445;50.774;4.944;2022-08-19T11:35:26;26.50;99.90
14709;DHT22;7445;50.774;4.944;2022-08-19T11:37:51;26.80;99.90
14709;DHT22;7445;50.774;4.944;2022-08-19T11:40:17;26.80;99.90
14709;DHT22;7445;50.774;4.944;2022-08-19T11:42:43;26.70;99.90
14709;DHT22;7445;50.774;4.944;2022-08-19T11:45:23;26.60;99.90
14709;DHT22;7445;50.774;4.944;2022-08-19T11:47:49;26.40;99.90
14709;DHT22;7445;50.774;4.944;2022-08-19T11:50:16;26.10;99.90
14709;DHT22;7445;50.774;4.944;2022-08-19T11:52:42;26.10;99.90
14709;DHT22;7445;50.774;4.944;2022-08-19T11:55:09;26.00;99.90
14709;DHT22;7445;50.774;4.944;2022-08-19T11:57:34;25.90;99.90
14709;DHT22;7445;50.774;4.944;2022-08-19T12:00:00;26.00;99.90
14709;DHT22;7445;50.774;4.944;2022-08-19T12:02:26;26.00;99.90
14709;DHT22;7445;50.774;4.944;2022-08-19T12:04:52;25.90;99.90
14709;DHT22;7445;50.774;4.944;2022-08-19T12:07:19;25.90;99.90
14709;DHT22;7445;50.774;4.944;2022-08-19T12:09:44;25.70;99.90
14709;DHT22;7445;50.774;4.944;2022-08-19T12:12:10;25.60;99.90
14709;DHT22;7445;50.774;4.944;2022-08-19T12:14:36;25.60;99.90
14709;DHT22;7445;50.774;4.944;2022-08-19T12:17:01;25.40;99.90
14709;DHT22;7445;50.774;4.944;2022-08-19T12:19:29;25.20;99.90
14709;DHT22;7445;50.774;4.944;2022-08-19T12:21:59;25.10;99.90
14709;DHT22;7445;50.774;4.944;2022-08-19T12:24:26;25.10;99.90
14709;DHT22;7445;50.774;4.944;2022-08-19T12:26:51;25.10;99.90
14709;DHT22;7445;50.774;4.944;2022-08-19T12:29:17;25.20;99.90
14709;DHT22;7445;50.774;4.944;2022-08-19T12:31:43;25.20;99.90
14709;DHT22;7445;50.774;4.944;2022-08-19T12:34:08;25.10;99.90
14709;DHT22;7445;50.774;4.944;2022-08-19T12:36:34;25.00;99.90
14709;DHT22;7445;50.774;4.944;2022-08-19T12:39:00;25.00;99.90
14709;DHT22;7445;50.774;4.944;2022-08-19T12:41:26;25.30;99.90
14709;DHT22;7445;50.774;4.944;2022-08-19T12:43:52;25.40;99.90
14709;DHT22;7445;50.774;4.944;2022-08-19T12:46:19;25.50;99.90
14709;DHT22;7445;50.774;4.944;2022-08-19T12:48:45;25.40;99.90
14709;DHT22;7445;50.774;4.944;2022-08-19T12:51:14;25.40;99.90
14709;DHT22;7445;50.774;4.944;2022-08-19T12:53:40;25.40;99.90
14709;DHT22;7445;50.774;4.944;2022-08-19T12:56:07;25.20;99.90
14709;DHT22;7445;50.774;4.944;2022-08-19T12:58:33;25.20;99.90
14709;DHT22;7445;50.774;4.944;2022-08-19T13:01:07;25.10;99.90
14709;DHT22;7445;50.774;4.944;2022-08-19T13:03:32;25.30;99.90
14709;DHT22;7445;50.774;4.944;2022-08-19T13:05:58;25.50;99.90
14709;DHT22;7445;50.774;4.944;2022-08-19T13:08:24;25.80;99.90
14709;DHT22;7445;50.774;4.944;2022-08-19T13:10:49;26.10;99.90
14709;DHT22;7445;50.774;4.944;2022-08-19T13:13:16;26.40;99.90
14709;DHT22;7445;50.774;4.944;2022-08-19T13:15:42;26.60;99.90
14709;DHT22;7445;50.774;4.944;2022-08-19T13:18:10;26.40;99.90
14709;DHT22;7445;50.774;4.944;2022-08-19T13:20:37;26.50;99.90
14709;DHT22;7445;50.774;4.944;2022-08-19T13:23:04;26.50;99.90
14709;DHT22;7445;50.774;4.944;2022-08-19T13:25:30;26.80;99.90
14709;DHT22;7445;50.774;4.944;2022-08-19T13:27:56;26.80;99.90
14709;DHT22;7445;50.774;4.944;2022-08-19T13:30:22;27.00;99.90
14709;DHT22;7445;50.774;4.944;2022-08-19T13:33:07;27.00;99.90
14709;DHT22;7445;50.774;4.944;2022-08-19T13:38:05;26.90;99.90
14709;DHT22;7445;50.774;4.944;2022-08-19T13:40:32;26.80;99.90
14709;DHT22;7445;50.774;4.944;2022-08-19T13:43:02;26.80;99.90
14709;DHT22;7445;50.774;4.944;2022-08-19T13:45:29;27.20;99.90
14709;DHT22;7445;50.774;4.944;2022-08-19T13:47:57;27.60;99.90
14709;DHT22;7445;50.774;4.944;2022-08-19T13:50:27;27.40;99.90
14709;DHT22;7445;50.774;4.944;2022-08-19T13:52:53;27.40;99.90
14709;DHT22;7445;50.774;4.944;2022-08-19T13:55:19;26.90;99.90
14709;DHT22;7445;50.774;4.944;2022-08-19T13:57:45;27.00;99.90
14709;DHT22;7445;50.774;4.944;2022-08-19T14:00:14;27.10;99.90
14709;DHT22;7445;50.774;4.944;2022-08-19T14:02:41;27.30;99.90
14709;DHT22;7445;50.774;4.944;2022-08-19T14:05:09;27.90;99.90
14709;DHT22;7445;50.774;4.944;2022-08-19T14:07:35;28.20;99.90
14709;DHT22;7445;50.774;4.944;2022-08-19T14:10:03;28.10;99.90
14709;DHT22;7445;50.774;4.944;2022-08-19T14:12:28;27.90;99.90
14709;DHT22;7445;50.774;4.944;2022-08-19T14:14:54;27.40;99.90
14709;DHT22;7445;50.774;4.944;2022-08-19T14:17:20;27.20;99.90
14709;DHT22;7445;50.774;4.944;2022-08-19T14:19:46;27.20;99.90
14709;DHT22;7445;50.774;4.944;2022-08-19T14:22:12;27.20;99.90
14709;DHT22;7445;50.774;4.944;2022-08-19T14:24:38;26.90;99.90
14709;DHT22;7445;50.774;4.944;2022-08-19T14:27:07;26.90;99.90
14709;DHT22;7445;50.774;4.944;2022-08-19T14:29:34;26.80;99.90
14709;DHT22;7445;50.774;4.944;2022-08-19T14:31:59;26.80;99.90
14709;DHT22;7445;50.774;4.944;2022-08-19T14:34:26;26.90;99.90
14709;DHT22;7445;50.774;4.944;2022-08-19T14:36:52;26.90;99.90
14709;DHT22;7445;50.774;4.944;2022-08-19T14:39:18;26.90;99.90
14709;DHT22;7445;50.774;4.944;2022-08-19T14:41:43;26.80;99.90
14709;DHT22;7445;50.774;4.944;2022-08-19T14:44:10;26.70;99.90
14709;DHT22;7445;50.774;4.944;2022-08-19T14:46:38;26.80;99.90
14709;DHT22;7445;50.774;4.944;2022-08-19T14:49:04;26.70;99.90
14709;DHT22;7445;50.774;4.944;2022-08-19T14:51:30;26.50;99.90
14709;DHT22;7445;50.774;4.944;2022-08-19T14:53:56;26.40;99.90
14709;DHT22;7445;50.774;4.944;2022-08-19T14:56:25;26.20;99.90
14709;DHT22;7445;50.774;4.944;2022-08-19T14:58:51;26.10;99.90
14709;DHT22;7445;50.774;4.944;2022-08-19T15:01:18;26.10;99.90
14709;DHT22;7445;50.774;4.944;2022-08-19T15:03:46;26.10;99.90
14709;DHT22;7445;50.774;4.944;2022-08-19T15:06:11;26.10;99.90
14709;DHT22;7445;50.774;4.944;2022-08-19T15:08:38;26.10;99.90
14709;DHT22;7445;50.774;4.944;2022-08-19T15:11:16;26.00;99.90
14709;DHT22;7445;50.774;4.944;2022-08-19T15:13:43;25.90;99.90
14709;DHT22;7445;50.774;4.944;2022-08-19T15:16:11;25.80;99.90
14709;DHT22;7445;50.774;4.944;2022-08-19T15:18:40;25.60;99.90
14709;DHT22;7445;50.774;4.944;2022-08-19T15:21:10;25.50;99.90
14709;DHT22;7445;50.774;4.944;2022-08-19T15:23:38;25.40;99.90
14709;DHT22;7445;50.774;4.944;2022-08-19T15:26:04;25.30;99.90
14709;DHT22;7445;50.774;4.944;2022-08-19T15:28:31;25.20;99.90
14709;DHT22;7445;50.774;4.944;2022-08-19T15:30:57;25.30;99.90
14709;DHT22;7445;50.774;4.944;2022-08-19T15:33:24;25.50;99.90
14709;DHT22;7445;50.774;4.944;2022-08-19T15:35:50;25.60;99.90
14709;DHT22;7445;50.774;4.944;2022-08-19T15:38:17;25.60;99.90
14709;DHT22;7445;50.774;4.944;2022-08-19T15:40:47;25.50;99.90
14709;DHT22;7445;50.774;4.944;2022-08-19T15:43:14;25.40;99.90
14709;DHT22;7445;50.774;4.944;2022-08-19T15:45:40;25.40;99.90
14709;DHT22;7445;50.774;4.944;2022-08-19T15:48:07;25.30;99.90
14709;DHT22;7445;50.774;4.944;2022-08-19T15:50:33;25.30;99.90
14709;DHT22;7445;50.774;4.944;2022-08-19T15:53:03;25.20;99.90
14709;DHT22;7445;50.774;4.944;2022-08-19T15:55:32;25.20;99.90
14709;DHT22;7445;50.774;4.944;2022-08-19T15:57:59;25.10;99.90
14709;DHT22;7445;50.774;4.944;2022-08-19T16:00:43;25.10;99.90
14709;DHT22;7445;50.774;4.944;2022-08-19T16:03:28;25.00;99.90
14709;DHT22;7445;50.774;4.944;2022-08-19T16:06:12;25.00;99.90
14709;DHT22;7445;50.774;4.944;2022-08-19T16:08:51;24.90;99.90
14709;DHT22;7445;50.774;4.944;2022-08-19T16:11:22;25.00;99.90